sensor_id;sensor_type;location;lat;lon;timestamp;pressure;altitude;pressure_sealevel;temperature;humidity
6395;BME280;3230;42.588;23.358;2023-04-29T00:02:06;91026.72;;;4.91;75.64
6395;BME280;3230;42.588;23.358;2023-04-29T00:04:32;91030.25;;;4.85;75.78
6395;BME280;3230;42.588;23.358;2023-04-29T00:06:58;91027.56;;;4.79;75.93
6395;BME280;3230;42.588;23.358;2023-04-29T00:09:23;91023.72;;;4.82;75.65
6395;BME280;3230;42.588;23.358;2023-04-29T00:11:48;91029.97;;;4.81;75.63
6395;BME280;3230;42.588;23.358;2023-04-29T00:14:14;91033.31;;;4.82;75.75
6395;BME280;3230;42.588;23.358;2023-04-29T00:16:40;91020.81;;;4.78;75.28
6395;BME280;3230;42.588;23.358;2023-04-29T00:19:05;91028.91;;;4.82;75.04
6395;BME280;3230;42.588;23.358;2023-04-29T00:21:31;91029.56;;;4.72;75.83
6395;BME280;3230;42.588;23.358;2023-04-29T00:23:57;91035.75;;;4.71;75.97
6395;BME280;3230;42.588;23.358;2023-04-29T00:26:23;91025.31;;;4.66;75.52
6395;BME280;3230;42.588;23.358;2023-04-29T00:28:48;91032.84;;;4.68;75.07
6395;BME280;3230;42.588;23.358;2023-04-29T00:31:13;91037.66;;;4.59;76.84
6395;BME280;3230;42.588;23.358;2023-04-29T00:33:39;91043.66;;;4.59;76.95
6395;BME280;3230;42.588;23.358;2023-04-29T00:36:05;91051.06;;;4.51;77.54
6395;BME280;3230;42.588;23.358;2023-04-29T00:38:31;91052.22;;;4.60;76.73
6395;BME280;3230;42.588;23.358;2023-04-29T00:40:56;91057.34;;;4.55;77.01
6395;BME280;3230;42.588;23.358;2023-04-29T00:43:22;91049.22;;;4.51;77.40
6395;BME280;3230;42.588;23.358;2023-04-29T00:45:48;91047.34;;;4.46;78.09
6395;BME280;3230;42.588;23.358;2023-04-29T00:48:14;91042.16;;;4.46;79.00
6395;BME280;3230;42.588;23.358;2023-04-29T00:50:40;91041.44;;;4.34;79.43
6395;BME280;3230;42.588;23.358;2023-04-29T00:53:07;91040.25;;;4.25;79.46
6395;BME280;3230;42.588;23.358;2023-04-29T00:55:32;91042.44;;;4.16;80.12
6395;BME280;3230;42.588;23.358;2023-04-29T00:57:59;91033.47;;;4.07;80.14
6395;BME280;3230;42.588;23.358;2023-04-29T01:00:27;91036.78;;;4.02;81.26
6395;BME280;3230;42.588;23.358;2023-04-29T01:02:52;91032.13;;;4.04;82.73
6395;BME280;3230;42.588;23.358;2023-04-29T01:05:21;91016.41;;;3.94;83.06
6395;BME280;3230;42.588;23.358;2023-04-29T01:10:46;91017.72;;;3.79;85.44
6395;BME280;3230;42.588;23.358;2023-04-29T01:13:17;91018.56;;;3.68;85.68
6395;BME280;3230;42.588;23.358;2023-04-29T01:15:55;91017.94;;;3.49;86.93
6395;BME280;3230;42.588;23.358;2023-04-29T01:18:37;91012.50;;;3.50;86.53
6395;BME280;3230;42.588;23.358;2023-04-29T01:21:04;91017.56;;;3.57;86.74
6395;BME280;3230;42.588;23.358;2023-04-29T01:23:30;91008.72;;;3.41;87.69
6395;BME280;3230;42.588;23.358;2023-04-29T01:25:56;91011.69;;;3.33;88.72
6395;BME280;3230;42.588;23.358;2023-04-29T01:28:34;91003.81;;;3.28;89.82
6395;BME280;3230;42.588;23.358;2023-04-29T01:31:09;91000.91;;;3.12;91.04
6395;BME280;3230;42.588;23.358;2023-04-29T01:33:50;91005.63;;;3.15;91.03
6395;BME280;3230;42.588;23.358;2023-04-29T01:36:29;91006.13;;;2.88;91.54
6395;BME280;3230;42.588;23.358;2023-04-29T01:41:43;91007.34;;;2.98;90.81
6395;BME280;3230;42.588;23.358;2023-04-29T01:44:14;91008.69;;;3.00;90.25
6395;BME280;3230;42.588;23.358;2023-04-29T01:46:42;91003.41;;;3.07;89.63
6395;BME280;3230;42.588;23.358;2023-04-29T01:49:08;91003.19;;;2.97;90.18
6395;BME280;3230;42.588;23.358;2023-04-29T01:51:33;90991.06;;;2.85;90.67
6395;BME280;3230;42.588;23.358;2023-04-29T01:53:58;90994.88;;;2.95;89.73
6395;BME280;3230;42.588;23.358;2023-04-29T01:56:24;90993.84;;;2.96;89.55
6395;BME280;3230;42.588;23.358;2023-04-29T01:58:49;90992.84;;;2.97;89.24
6395;BME280;3230;42.588;23.358;2023-04-29T02:01:15;90995.00;;;3.00;89.58
6395;BME280;3230;42.588;23.358;2023-04-29T02:03:40;90993.41;;;2.99;89.26
6395;BME280;3230;42.588;23.358;2023-04-29T02:06:06;90986.06;;;3.08;88.63
6395;BME280;3230;42.588;23.358;2023-04-29T02:08:31;90988.41;;;3.09;88.78
6395;BME280;3230;42.588;23.358;2023-04-29T02:10:58;90989.00;;;3.11;88.47
6395;BME280;3230;42.588;23.358;2023-04-29T02:13:24;90987.16;;;3.24;87.43
6395;BME280;3230;42.588;23.358;2023-04-29T02:15:49;90991.34;;;3.13;87.62
6395;BME280;3230;42.588;23.358;2023-04-29T02:18:15;90991.78;;;3.22;86.95
6395;BME280;3230;42.588;23.358;2023-04-29T02:20:40;90992.41;;;3.29;86.21
6395;BME280;3230;42.588;23.358;2023-04-29T02:23:06;90985.69;;;3.28;85.96
6395;BME280;3230;42.588;23.358;2023-04-29T02:25:31;90993.91;;;3.25;85.94
6395;BME280;3230;42.588;23.358;2023-04-29T02:27:57;90993.00;;;3.19;86.60
6395;BME280;3230;42.588;23.358;2023-04-29T02:30:22;90984.91;;;3.15;86.76
6395;BME280;3230;42.588;23.358;2023-04-29T02:32:47;90989.13;;;3.04;87.50
6395;BME280;3230;42.588;23.358;2023-04-29T02:35:13;90989.34;;;3.03;87.37
6395;BME280;3230;42.588;23.358;2023-04-29T02:37:38;90996.56;;;3.01;87.65
6395;BME280;3230;42.588;23.358;2023-04-29T02:40:04;90992.50;;;2.93;87.98
6395;BME280;3230;42.588;23.358;2023-04-29T02:42:30;90985.31;;;2.95;87.98
6395;BME280;3230;42.588;23.358;2023-04-29T02:44:55;90977.88;;;2.99;87.56
6395;BME280;3230;42.588;23.358;2023-04-29T02:47:21;90984.84;;;2.98;87.50
6395;BME280;3230;42.588;23.358;2023-04-29T02:49:46;90981.94;;;2.95;87.42
6395;BME280;3230;42.588;23.358;2023-04-29T02:52:11;90976.66;;;2.90;87.52
6395;BME280;3230;42.588;23.358;2023-04-29T02:54:37;90987.91;;;2.83;88.22
6395;BME280;3230;42.588;23.358;2023-04-29T02:57:03;90995.91;;;2.82;88.60
6395;BME280;3230;42.588;23.358;2023-04-29T02:59:28;90993.56;;;2.80;88.35
6395;BME280;3230;42.588;23.358;2023-04-29T03:01:54;90990.97;;;2.80;88.06
6395;BME280;3230;42.588;23.358;2023-04-29T03:04:19;91005.34;;;2.76;88.55
6395;BME280;3230;42.588;23.358;2023-04-29T03:06:45;91017.06;;;2.79;88.82
6395;BME280;3230;42.588;23.358;2023-04-29T03:09:10;91003.44;;;2.83;88.62
6395;BME280;3230;42.588;23.358;2023-04-29T03:11:37;91007.84;;;2.83;88.29
6395;BME280;3230;42.588;23.358;2023-04-29T03:14:03;91002.75;;;2.88;87.49
6395;BME280;3230;42.588;23.358;2023-04-29T03:16:28;91002.44;;;2.84;87.69
6395;BME280;3230;42.588;23.358;2023-04-29T03:18:54;90998.84;;;2.85;88.60
6395;BME280;3230;42.588;23.358;2023-04-29T03:21:19;91007.50;;;2.79;89.56
6395;BME280;3230;42.588;23.358;2023-04-29T03:23:45;91002.53;;;2.90;89.80
6395;BME280;3230;42.588;23.358;2023-04-29T03:26:10;91005.34;;;3.00;88.83
6395;BME280;3230;42.588;23.358;2023-04-29T03:28:36;91011.06;;;3.02;88.40
6395;BME280;3230;42.588;23.358;2023-04-29T03:31:01;91014.03;;;2.94;88.75
6395;BME280;3230;42.588;23.358;2023-04-29T03:33:27;91023.81;;;2.92;88.86
6395;BME280;3230;42.588;23.358;2023-04-29T03:35:53;91026.28;;;2.86;89.34
6395;BME280;3230;42.588;23.358;2023-04-29T03:38:18;91029.22;;;2.90;89.67
6395;BME280;3230;42.588;23.358;2023-04-29T03:40:44;91030.66;;;2.98;89.15
6395;BME280;3230;42.588;23.358;2023-04-29T03:43:09;91029.75;;;2.92;89.63
6395;BME280;3230;42.588;23.358;2023-04-29T03:45:35;91044.16;;;3.00;90.09
6395;BME280;3230;42.588;23.358;2023-04-29T03:48:00;91043.69;;;3.03;90.52
6395;BME280;3230;42.588;23.358;2023-04-29T03:50:27;91047.06;;;3.15;89.98
6395;BME280;3230;42.588;23.358;2023-04-29T03:52:52;91042.22;;;3.19;90.08
6395;BME280;3230;42.588;23.358;2023-04-29T03:55:18;91037.59;;;3.21;90.14
6395;BME280;3230;42.588;23.358;2023-04-29T03:57:43;91040.94;;;3.33;90.20
6395;BME280;3230;42.588;23.358;2023-04-29T04:00:09;91038.00;;;3.42;89.78
6395;BME280;3230;42.588;23.358;2023-04-29T04:02:35;91025.47;;;3.50;90.00
6395;BME280;3230;42.588;23.358;2023-04-29T04:05:00;91035.63;;;3.52;89.60
6395;BME280;3230;42.588;23.358;2023-04-29T04:07:25;91031.63;;;3.61;88.99
6395;BME280;3230;42.588;23.358;2023-04-29T04:09:51;91037.03;;;3.72;89.16
6395;BME280;3230;42.588;23.358;2023-04-29T04:12:16;91031.97;;;3.94;89.23
6395;BME280;3230;42.588;23.358;2023-04-29T04:14:42;91026.47;;;4.07;88.24
6395;BME280;3230;42.588;23.358;2023-04-29T04:17:07;91037.50;;;4.14;87.38
6395;BME280;3230;42.588;23.358;2023-04-29T04:19:32;91035.06;;;4.25;89.27
6395;BME280;3230;42.588;23.358;2023-04-29T04:21:58;91033.66;;;4.34;88.39
6395;BME280;3230;42.588;23.358;2023-04-29T04:24:23;91028.41;;;4.46;87.39
6395;BME280;3230;42.588;23.358;2023-04-29T04:26:48;91031.53;;;4.65;87.68
6395;BME280;3230;42.588;23.358;2023-04-29T04:29:14;91033.63;;;4.85;88.88
6395;BME280;3230;42.588;23.358;2023-04-29T04:31:40;91041.00;;;5.10;89.03
6395;BME280;3230;42.588;23.358;2023-04-29T04:34:05;91035.31;;;5.36;88.32
6395;BME280;3230;42.588;23.358;2023-04-29T04:36:30;91027.03;;;5.61;86.35
6395;BME280;3230;42.588;23.358;2023-04-29T04:38:57;91036.16;;;5.86;83.88
6395;BME280;3230;42.588;23.358;2023-04-29T04:41:23;91027.06;;;6.11;85.06
6395;BME280;3230;42.588;23.358;2023-04-29T04:43:48;91023.00;;;6.20;85.07
6395;BME280;3230;42.588;23.358;2023-04-29T04:46:14;91019.47;;;6.36;84.08
6395;BME280;3230;42.588;23.358;2023-04-29T04:48:41;91019.75;;;6.67;84.12
6395;BME280;3230;42.588;23.358;2023-04-29T04:51:10;91024.88;;;7.00;83.47
6395;BME280;3230;42.588;23.358;2023-04-29T04:53:36;91028.47;;;7.36;81.39
6395;BME280;3230;42.588;23.358;2023-04-29T04:56:02;91027.34;;;7.80;72.35
6395;BME280;3230;42.588;23.358;2023-04-29T04:58:27;91037.13;;;8.42;66.01
6395;BME280;3230;42.588;23.358;2023-04-29T05:00:55;91041.59;;;8.88;64.99
6395;BME280;3230;42.588;23.358;2023-04-29T05:03:20;91049.38;;;9.29;58.80
6395;BME280;3230;42.588;23.358;2023-04-29T05:05:52;91049.03;;;9.67;54.09
6395;BME280;3230;42.588;23.358;2023-04-29T05:08:17;91049.03;;;10.27;52.26
6395;BME280;3230;42.588;23.358;2023-04-29T05:10:43;91044.16;;;10.95;49.09
6395;BME280;3230;42.588;23.358;2023-04-29T05:13:08;91040.91;;;11.38;45.88
6395;BME280;3230;42.588;23.358;2023-04-29T05:15:34;91029.09;;;11.11;47.07
6395;BME280;3230;42.588;23.358;2023-04-29T05:17:59;91026.72;;;11.09;47.01
6395;BME280;3230;42.588;23.358;2023-04-29T05:20:25;91032.47;;;11.11;48.43
6395;BME280;3230;42.588;23.358;2023-04-29T05:22:50;91036.31;;;10.90;49.79
6395;BME280;3230;42.588;23.358;2023-04-29T05:25:16;91028.19;;;10.56;49.66
6395;BME280;3230;42.588;23.358;2023-04-29T05:27:41;91028.72;;;10.08;49.33
6395;BME280;3230;42.588;23.358;2023-04-29T05:30:07;91021.00;;;10.28;50.82
6395;BME280;3230;42.588;23.358;2023-04-29T05:32:32;91016.13;;;10.11;50.89
6395;BME280;3230;42.588;23.358;2023-04-29T05:34:58;91008.78;;;10.13;51.17
6395;BME280;3230;42.588;23.358;2023-04-29T05:37:23;91002.50;;;10.14;54.17
6395;BME280;3230;42.588;23.358;2023-04-29T05:39:54;91009.31;;;10.60;53.09
6395;BME280;3230;42.588;23.358;2023-04-29T05:42:20;91005.19;;;10.48;51.26
6395;BME280;3230;42.588;23.358;2023-04-29T05:44:46;91006.66;;;10.94;49.02
6395;BME280;3230;42.588;23.358;2023-04-29T05:47:11;91004.06;;;11.48;47.43
6395;BME280;3230;42.588;23.358;2023-04-29T05:49:36;90999.56;;;11.97;45.92
6395;BME280;3230;42.588;23.358;2023-04-29T05:52:03;91001.16;;;12.17;46.70
6395;BME280;3230;42.588;23.358;2023-04-29T05:54:31;90993.84;;;12.52;44.23
6395;BME280;3230;42.588;23.358;2023-04-29T05:56:56;90994.19;;;12.64;45.27
6395;BME280;3230;42.588;23.358;2023-04-29T05:59:22;91009.06;;;13.35;41.81
6395;BME280;3230;42.588;23.358;2023-04-29T06:01:47;91010.41;;;14.44;40.89
6395;BME280;3230;42.588;23.358;2023-04-29T06:04:13;91016.22;;;14.55;41.06
6395;BME280;3230;42.588;23.358;2023-04-29T06:06:38;91019.53;;;14.97;39.75
6395;BME280;3230;42.588;23.358;2023-04-29T06:09:04;91023.97;;;14.88;41.38
6395;BME280;3230;42.588;23.358;2023-04-29T06:11:29;91012.78;;;16.17;43.54
6395;BME280;3230;42.588;23.358;2023-04-29T06:13:55;91008.13;;;18.02;40.89
6395;BME280;3230;42.588;23.358;2023-04-29T06:16:21;91006.81;;;19.44;35.90
6395;BME280;3230;42.588;23.358;2023-04-29T06:18:47;91016.75;;;20.67;33.10
6395;BME280;3230;42.588;23.358;2023-04-29T06:21:12;91022.41;;;20.53;34.08
6395;BME280;3230;42.588;23.358;2023-04-29T06:23:38;91021.66;;;22.23;29.55
6395;BME280;3230;42.588;23.358;2023-04-29T06:26:03;91021.31;;;23.12;29.86
6395;BME280;3230;42.588;23.358;2023-04-29T06:28:28;91020.66;;;23.97;27.50
6395;BME280;3230;42.588;23.358;2023-04-29T06:30:54;91024.81;;;24.41;26.34
6395;BME280;3230;42.588;23.358;2023-04-29T06:33:19;91026.69;;;25.51;24.55
6395;BME280;3230;42.588;23.358;2023-04-29T06:35:45;91030.63;;;24.00;26.92
6395;BME280;3230;42.588;23.358;2023-04-29T06:38:10;91043.94;;;25.20;25.53
6395;BME280;3230;42.588;23.358;2023-04-29T06:40:36;91027.63;;;25.02;26.35
6395;BME280;3230;42.588;23.358;2023-04-29T06:43:01;91027.94;;;25.95;24.07
6395;BME280;3230;42.588;23.358;2023-04-29T06:45:28;91024.56;;;25.64;24.10
6395;BME280;3230;42.588;23.358;2023-04-29T06:47:54;91037.41;;;25.17;24.52
6395;BME280;3230;42.588;23.358;2023-04-29T06:50:19;91036.50;;;24.79;25.28
6395;BME280;3230;42.588;23.358;2023-04-29T06:52:45;91028.25;;;23.95;26.22
6395;BME280;3230;42.588;23.358;2023-04-29T06:55:10;91019.34;;;25.45;25.58
6395;BME280;3230;42.588;23.358;2023-04-29T06:57:36;91021.94;;;24.53;26.04
6395;BME280;3230;42.588;23.358;2023-04-29T07:00:02;91033.81;;;25.70;24.62
6395;BME280;3230;42.588;23.358;2023-04-29T07:02:28;91021.63;;;26.14;24.51
6395;BME280;3230;42.588;23.358;2023-04-29T07:04:54;91035.66;;;26.87;24.36
6395;BME280;3230;42.588;23.358;2023-04-29T07:07:19;91028.81;;;27.92;23.08
6395;BME280;3230;42.588;23.358;2023-04-29T07:09:45;91034.25;;;28.06;22.32
6395;BME280;3230;42.588;23.358;2023-04-29T07:12:10;91018.25;;;26.21;23.59
6395;BME280;3230;42.588;23.358;2023-04-29T07:14:35;91031.59;;;28.14;22.51
6395;BME280;3230;42.588;23.358;2023-04-29T07:17:01;91024.22;;;27.04;22.45
6395;BME280;3230;42.588;23.358;2023-04-29T07:19:27;91029.25;;;28.16;21.38
6395;BME280;3230;42.588;23.358;2023-04-29T07:21:52;91030.28;;;27.64;21.68
6395;BME280;3230;42.588;23.358;2023-04-29T07:24:18;91021.72;;;25.88;23.31
6395;BME280;3230;42.588;23.358;2023-04-29T07:26:43;91021.97;;;26.09;23.31
6395;BME280;3230;42.588;23.358;2023-04-29T07:29:09;91020.28;;;26.91;22.65
6395;BME280;3230;42.588;23.358;2023-04-29T07:31:35;91023.03;;;26.46;22.85
6395;BME280;3230;42.588;23.358;2023-04-29T07:34:00;91020.78;;;26.52;23.37
6395;BME280;3230;42.588;23.358;2023-04-29T07:36:26;91018.66;;;26.75;22.98
6395;BME280;3230;42.588;23.358;2023-04-29T07:38:53;91024.25;;;27.11;22.33
6395;BME280;3230;42.588;23.358;2023-04-29T07:41:18;91018.06;;;27.00;23.02
6395;BME280;3230;42.588;23.358;2023-04-29T07:43:44;91019.28;;;27.13;22.97
6395;BME280;3230;42.588;23.358;2023-04-29T07:46:09;91027.38;;;27.17;23.06
6395;BME280;3230;42.588;23.358;2023-04-29T07:48:38;91027.75;;;28.18;22.06
6395;BME280;3230;42.588;23.358;2023-04-29T07:51:04;91022.97;;;27.61;23.31
6395;BME280;3230;42.588;23.358;2023-04-29T07:53:30;91018.78;;;27.85;22.29
6395;BME280;3230;42.588;23.358;2023-04-29T07:55:56;91023.09;;;28.12;22.17
6395;BME280;3230;42.588;23.358;2023-04-29T07:58:21;91020.81;;;28.64;22.18
6395;BME280;3230;42.588;23.358;2023-04-29T08:00:47;91023.00;;;27.79;22.60
6395;BME280;3230;42.588;23.358;2023-04-29T08:03:12;91017.31;;;29.11;22.34
6395;BME280;3230;42.588;23.358;2023-04-29T08:05:38;91018.13;;;28.28;21.79
6395;BME280;3230;42.588;23.358;2023-04-29T08:08:04;91022.97;;;27.61;20.90
6395;BME280;3230;42.588;23.358;2023-04-29T08:10:30;91012.28;;;27.97;22.36
6395;BME280;3230;42.588;23.358;2023-04-29T08:12:56;91019.28;;;26.58;23.10
6395;BME280;3230;42.588;23.358;2023-04-29T08:15:21;91015.94;;;26.23;21.17
6395;BME280;3230;42.588;23.358;2023-04-29T08:17:47;91017.50;;;25.86;23.18
6395;BME280;3230;42.588;23.358;2023-04-29T08:20:12;91018.66;;;25.89;22.75
6395;BME280;3230;42.588;23.358;2023-04-29T08:22:39;91017.97;;;25.28;23.07
6395;BME280;3230;42.588;23.358;2023-04-29T08:25:05;91016.38;;;25.23;23.58
6395;BME280;3230;42.588;23.358;2023-04-29T08:27:30;91013.06;;;25.64;23.15
6395;BME280;3230;42.588;23.358;2023-04-29T08:29:56;91009.63;;;25.02;24.05
6395;BME280;3230;42.588;23.358;2023-04-29T08:32:21;91009.28;;;25.07;24.85
6395;BME280;3230;42.588;23.358;2023-04-29T08:34:47;91016.53;;;26.06;22.61
6395;BME280;3230;42.588;23.358;2023-04-29T08:37:12;91010.69;;;25.59;21.34
6395;BME280;3230;42.588;23.358;2023-04-29T08:39:39;91007.81;;;25.10;21.76
6395;BME280;3230;42.588;23.358;2023-04-29T08:42:08;91013.56;;;24.32;21.65
6395;BME280;3230;42.588;23.358;2023-04-29T08:44:35;91016.66;;;22.89;26.62
6395;BME280;3230;42.588;23.358;2023-04-29T08:47:01;91009.56;;;22.97;25.34
6395;BME280;3230;42.588;23.358;2023-04-29T08:49:28;91010.69;;;22.76;26.02
6395;BME280;3230;42.588;23.358;2023-04-29T08:51:53;91009.28;;;22.82;25.18
6395;BME280;3230;42.588;23.358;2023-04-29T08:54:19;91005.75;;;22.98;24.24
6395;BME280;3230;42.588;23.358;2023-04-29T08:56:45;91003.38;;;22.57;25.08
6395;BME280;3230;42.588;23.358;2023-04-29T08:59:13;90999.59;;;23.33;24.00
6395;BME280;3230;42.588;23.358;2023-04-29T09:01:41;90993.31;;;22.86;24.92
6395;BME280;3230;42.588;23.358;2023-04-29T09:06:43;90987.06;;;21.50;26.43
6395;BME280;3230;42.588;23.358;2023-04-29T09:09:09;90978.38;;;21.09;27.62
6395;BME280;3230;42.588;23.358;2023-04-29T09:11:35;90975.72;;;20.68;30.54
6395;BME280;3230;42.588;23.358;2023-04-29T09:14:02;90978.09;;;19.83;29.46
6395;BME280;3230;42.588;23.358;2023-04-29T09:16:28;90977.47;;;19.99;29.04
6395;BME280;3230;42.588;23.358;2023-04-29T09:18:54;90971.13;;;20.03;29.40
6395;BME280;3230;42.588;23.358;2023-04-29T09:21:24;90972.16;;;19.99;29.26
6395;BME280;3230;42.588;23.358;2023-04-29T09:23:56;90969.66;;;19.69;29.45
6395;BME280;3230;42.588;23.358;2023-04-29T09:26:22;90969.69;;;19.35;30.47
6395;BME280;3230;42.588;23.358;2023-04-29T09:29:07;90978.25;;;18.65;30.06
6395;BME280;3230;42.588;23.358;2023-04-29T09:31:34;90982.63;;;18.18;31.68
6395;BME280;3230;42.588;23.358;2023-04-29T09:33:59;90971.59;;;18.08;32.08
6395;BME280;3230;42.588;23.358;2023-04-29T09:39:08;90965.63;;;18.62;30.95
6395;BME280;3230;42.588;23.358;2023-04-29T09:44:18;90964.56;;;19.63;30.09
6395;BME280;3230;42.588;23.358;2023-04-29T09:46:54;90968.56;;;20.07;29.73
6395;BME280;3230;42.588;23.358;2023-04-29T09:49:26;90963.50;;;19.89;29.62
6395;BME280;3230;42.588;23.358;2023-04-29T09:51:53;90960.47;;;19.66;29.90
6395;BME280;3230;42.588;23.358;2023-04-29T09:54:20;90959.88;;;19.48;29.59
6395;BME280;3230;42.588;23.358;2023-04-29T09:56:51;90955.16;;;19.20;29.85
6395;BME280;3230;42.588;23.358;2023-04-29T09:59:17;90947.97;;;19.21;30.26
6395;BME280;3230;42.588;23.358;2023-04-29T10:01:46;90950.34;;;19.59;30.29
6395;BME280;3230;42.588;23.358;2023-04-29T10:04:14;90943.09;;;19.23;30.82
6395;BME280;3230;42.588;23.358;2023-04-29T10:06:40;90937.97;;;19.51;30.97
6395;BME280;3230;42.588;23.358;2023-04-29T10:09:07;90946.34;;;19.28;30.73
6395;BME280;3230;42.588;23.358;2023-04-29T10:11:35;90932.88;;;19.00;31.34
6395;BME280;3230;42.588;23.358;2023-04-29T10:14:02;90943.38;;;18.54;32.00
6395;BME280;3230;42.588;23.358;2023-04-29T10:16:30;90945.81;;;18.80;31.26
6395;BME280;3230;42.588;23.358;2023-04-29T10:18:59;90932.72;;;18.42;31.37
6395;BME280;3230;42.588;23.358;2023-04-29T10:21:29;90941.34;;;18.51;31.58
6395;BME280;3230;42.588;23.358;2023-04-29T10:23:58;90932.63;;;18.50;31.33
6395;BME280;3230;42.588;23.358;2023-04-29T10:26:29;90931.47;;;18.39;32.80
6395;BME280;3230;42.588;23.358;2023-04-29T10:28:56;90921.97;;;18.38;32.65
6395;BME280;3230;42.588;23.358;2023-04-29T10:31:27;90928.44;;;18.49;32.58
6395;BME280;3230;42.588;23.358;2023-04-29T10:33:57;90924.81;;;18.33;32.30
6395;BME280;3230;42.588;23.358;2023-04-29T10:36:24;90925.44;;;18.30;32.54
6395;BME280;3230;42.588;23.358;2023-04-29T10:38:56;90928.56;;;18.53;32.50
6395;BME280;3230;42.588;23.358;2023-04-29T10:41:26;90928.22;;;18.33;32.07
6395;BME280;3230;42.588;23.358;2023-04-29T10:43:53;90927.97;;;18.05;32.40
6395;BME280;3230;42.588;23.358;2023-04-29T10:46:21;90936.25;;;18.46;31.93
6395;BME280;3230;42.588;23.358;2023-04-29T10:48:47;90935.03;;;18.43;31.16
6395;BME280;3230;42.588;23.358;2023-04-29T10:51:31;90925.44;;;18.51;32.34
6395;BME280;3230;42.588;23.358;2023-04-29T10:54:11;90930.34;;;18.82;31.58
6395;BME280;3230;42.588;23.358;2023-04-29T10:59:04;90926.56;;;18.50;32.40
6395;BME280;3230;42.588;23.358;2023-04-29T11:01:44;90918.16;;;18.81;31.18
6395;BME280;3230;42.588;23.358;2023-04-29T11:04:09;90920.25;;;18.97;31.62
6395;BME280;3230;42.588;23.358;2023-04-29T11:09:09;90907.91;;;19.13;29.63
6395;BME280;3230;42.588;23.358;2023-04-29T11:14:42;90917.31;;;18.90;30.57
6395;BME280;3230;42.588;23.358;2023-04-29T11:17:14;90909.25;;;18.65;30.46
6395;BME280;3230;42.588;23.358;2023-04-29T11:19:45;90901.09;;;18.70;31.49
6395;BME280;3230;42.588;23.358;2023-04-29T11:22:24;90919.72;;;18.82;30.91
6395;BME280;3230;42.588;23.358;2023-04-29T11:25:04;90914.50;;;18.74;30.64
6395;BME280;3230;42.588;23.358;2023-04-29T11:27:38;90908.22;;;18.78;30.65
6395;BME280;3230;42.588;23.358;2023-04-29T11:30:05;90921.38;;;18.11;30.90
6395;BME280;3230;42.588;23.358;2023-04-29T11:32:33;90906.41;;;18.28;31.11
6395;BME280;3230;42.588;23.358;2023-04-29T11:37:39;90917.84;;;17.98;31.39
6395;BME280;3230;42.588;23.358;2023-04-29T11:40:06;90908.19;;;18.24;31.86
6395;BME280;3230;42.588;23.358;2023-04-29T11:42:39;90908.53;;;18.13;32.72
6395;BME280;3230;42.588;23.358;2023-04-29T11:45:05;90907.38;;;17.72;33.32
6395;BME280;3230;42.588;23.358;2023-04-29T11:47:31;90912.28;;;17.52;32.99
6395;BME280;3230;42.588;23.358;2023-04-29T11:50:06;90905.13;;;16.88;34.00
6395;BME280;3230;42.588;23.358;2023-04-29T11:52:34;90908.78;;;16.39;34.91
6395;BME280;3230;42.588;23.358;2023-04-29T11:55:02;90903.66;;;16.43;35.06
6395;BME280;3230;42.588;23.358;2023-04-29T11:57:27;90911.13;;;16.41;35.30
6395;BME280;3230;42.588;23.358;2023-04-29T11:59:53;90905.66;;;16.20;35.77
6395;BME280;3230;42.588;23.358;2023-04-29T12:02:27;90908.78;;;16.13;36.69
6395;BME280;3230;42.588;23.358;2023-04-29T12:04:53;90905.31;;;15.86;36.30
6395;BME280;3230;42.588;23.358;2023-04-29T12:07:18;90898.00;;;15.83;37.08
6395;BME280;3230;42.588;23.358;2023-04-29T12:09:44;90899.56;;;15.84;37.24
6395;BME280;3230;42.588;23.358;2023-04-29T12:12:11;90903.44;;;15.87;36.54
6395;BME280;3230;42.588;23.358;2023-04-29T12:14:37;90902.25;;;16.02;36.29
6395;BME280;3230;42.588;23.358;2023-04-29T12:17:04;90901.63;;;16.22;36.28
6395;BME280;3230;42.588;23.358;2023-04-29T12:19:29;90902.56;;;16.35;35.82
6395;BME280;3230;42.588;23.358;2023-04-29T12:21:59;90903.97;;;16.15;36.10
6395;BME280;3230;42.588;23.358;2023-04-29T12:24:25;90899.44;;;16.33;36.23
6395;BME280;3230;42.588;23.358;2023-04-29T12:26:50;90893.22;;;16.46;35.80
6395;BME280;3230;42.588;23.358;2023-04-29T12:29:20;90895.72;;;16.34;35.02
6395;BME280;3230;42.588;23.358;2023-04-29T12:31:46;90889.66;;;16.25;35.68
6395;BME280;3230;42.588;23.358;2023-04-29T12:34:12;90894.47;;;16.23;37.92
6395;BME280;3230;42.588;23.358;2023-04-29T12:36:41;90891.06;;;16.40;37.14
6395;BME280;3230;42.588;23.358;2023-04-29T12:39:06;90894.47;;;16.14;36.44
6395;BME280;3230;42.588;23.358;2023-04-29T12:41:38;90892.31;;;16.16;39.55
6395;BME280;3230;42.588;23.358;2023-04-29T12:44:04;90887.75;;;15.90;40.83
6395;BME280;3230;42.588;23.358;2023-04-29T12:46:37;90893.19;;;16.03;38.68
6395;BME280;3230;42.588;23.358;2023-04-29T12:49:04;90898.47;;;15.94;38.82
6395;BME280;3230;42.588;23.358;2023-04-29T12:51:33;90896.47;;;15.99;37.25
6395;BME280;3230;42.588;23.358;2023-04-29T12:54:03;90892.00;;;16.18;38.39
6395;BME280;3230;42.588;23.358;2023-04-29T12:56:29;90896.34;;;16.31;38.24
6395;BME280;3230;42.588;23.358;2023-04-29T12:58:56;90893.84;;;16.17;38.83
6395;BME280;3230;42.588;23.358;2023-04-29T13:01:28;90891.06;;;16.31;41.91
6395;BME280;3230;42.588;23.358;2023-04-29T13:03:54;90888.72;;;16.47;39.63
6395;BME280;3230;42.588;23.358;2023-04-29T13:06:19;90887.78;;;16.52;42.69
6395;BME280;3230;42.588;23.358;2023-04-29T13:08:45;90884.50;;;16.20;42.34
6395;BME280;3230;42.588;23.358;2023-04-29T13:11:10;90891.66;;;16.28;42.52
6395;BME280;3230;42.588;23.358;2023-04-29T13:13:37;90888.09;;;16.15;43.99
6395;BME280;3230;42.588;23.358;2023-04-29T13:16:03;90877.97;;;16.08;44.15
6395;BME280;3230;42.588;23.358;2023-04-29T13:18:28;90888.41;;;16.22;42.30
6395;BME280;3230;42.588;23.358;2023-04-29T13:20:53;90891.84;;;16.05;47.31
6395;BME280;3230;42.588;23.358;2023-04-29T13:23:19;90881.41;;;16.09;44.16
6395;BME280;3230;42.588;23.358;2023-04-29T13:25:45;90884.38;;;16.16;43.36
6395;BME280;3230;42.588;23.358;2023-04-29T13:28:10;90880.78;;;15.94;42.19
6395;BME280;3230;42.588;23.358;2023-04-29T13:30:35;90878.59;;;15.96;42.92
6395;BME280;3230;42.588;23.358;2023-04-29T13:33:01;90879.22;;;16.37;43.54
6395;BME280;3230;42.588;23.358;2023-04-29T13:35:26;90877.22;;;16.25;45.08
6395;BME280;3230;42.588;23.358;2023-04-29T13:37:52;90864.94;;;16.03;42.78